Create Custom Reports and Graphics: Custom Report

Upper Lake

Current Conditions

10/24/20 10:15 PM (-07:00)
Updated Every 15 Minutes
Temp 48.8 °F   1.1
Daily Max Temp 75.9 °F   2.4
Daily Min Temp 38.6 °F   1.8
Daily Rain 0.00 In
RH 80 %   6
Dew Pt 43.0 °F   1.0
Wet Bulb 46.3 °F   0.0
Wind Dir WNW | 295 °
Wind Spd 0.4 mph   0.1
Wind Gust 2.0 mph   0.5
Leaf Wet 0.0 mins
BatVolt 12.6 V   0.0

Today & Yesterday

Upper Lake

10/24/20 10:15 PM (-07:00)
Updated Every 15 Minutes
Daily Max Temp 75.9 °F   2.4
Daily Min Temp 38.6 °F   1.8
Daily Max Wind 14.5 mph   1.3
Time of Max Wind 1811
Max Wind Dir WNW | 296 °
Daily Leaf Wet Hrs 0.0 hrs   0.0
Daily Rain 0.00 In
Yesterday's Max Temp 78.3 °F
Yesterday’s Min Temp 36.8 °F
Yesterday's Max Wind 13.2 mph
Leaf Wet Hrs Yest 0.0 Hours
Yesterday's Rainfall 0.00 In

Rainfall Report

Upper Lake

10/24/20 10:15 PM (-07:00)
Updated Every 15 Minutes
Latest Rain 0.00 In
Daily Rain 0.00 In
Yesterday's Rainfall 0.00 In
Monthly Rain 0.00 In
Seasonal Rainfall 0.11 In

Last 48 Hours

Upper Lake

Hourly Data | America/Los_Angeles
as of 10/24/20 10:19 PM PDT
Date & Time Temp (°F) Temp2 (°F) RH (%) Dew Pt (°F) Wet Bulb (°F) Wind Dir (°) Wind Spd (mph) Wind Gust (mph) Leaf Wet (mins) Latest Rain (In) Daily Rain (In) Daily Max Temp (°F) Daily Min Temp (°F) Daily Leaf Wet Hrs (hrs)
10/24/20 - 2200 50.2 49.9 79 43.9 47.4 NW | 315 0.7 3.0 0.0 0.00 0.00 75.9 38.6 0.0
10/24/20 - 2100 53.1 52.8 69 43.1 48.4 NNW | 330 0.9 4.0 0.0 0.00 0.00 75.9 38.6 0.0
10/24/20 - 2000 59.0 58.3 54 42.3 50.4 SW | 233 1.8 7.1 0.0 0.00 0.00 75.9 38.6 0.0
10/24/20 - 1900 66.3 66.0 39 40.3 52.2 W | 272 5.9 14.5 0.0 0.00 0.00 75.9 38.6 0.0
10/24/20 - 1800 71.2 70.9 33 40.6 54.0 WNW | 286 6.8 13.5 0.0 0.00 0.00 75.9 38.6 0.0
10/24/20 - 1700 74.8 73.4 28 39.4 54.5 SSE | 162 4.6 10.7 0.0 0.00 0.00 75.9 38.6 0.0
10/24/20 - 1600 74.9 73.8 26 38.1 54.1 SSE | 153 5.4 10.7 0.0 0.00 0.00 75.9 38.6 0.0
10/24/20 - 1500 74.6 74.2 27 38.0 53.9 S | 175 5.0 11.3 0.0 0.00 0.00 75.7 38.6 0.0
10/24/20 - 1400 73.9 73.5 28 38.9 54.1 S | 172 4.7 10.3 0.0 0.00 0.00 74.6 38.6 0.0
10/24/20 - 1300 71.4 71.6 32 40.2 53.9 SSE | 147 3.3 7.3 0.0 0.00 0.00 73.7 38.6 0.0
10/24/20 - 1200 67.1 67.6 38 40.9 52.8 SE | 126 2.1 5.0 0.0 0.00 0.00 69.3 38.6 0.0
10/24/20 - 1100 63.0 62.7 45 41.3 51.5 SSE | 162 1.6 4.1 0.0 0.00 0.00 65.7 38.6 0.0
10/24/20 - 1000 55.8 56.0 62 42.9 49.4 ESE | 122 1.2 3.0 0.0 0.00 0.00 61.1 38.6 0.0
10/24/20 - 0900 44.5 45.3 90 41.7 43.4 NE | 56 0.6 2.3 0.0 0.00 0.00 50.5 38.6 0.0
10/24/20 - 0800 39.0 38.8 99 38.7 39.0 NNW | 330 0.3 2.8 1.8 0.00 0.00 44.8 38.6 0.0
10/24/20 - 0700 39.4 39.3 98 38.9 39.4 NW | 320 0.5 2.7 0.0 0.00 0.00 44.8 38.9 0.0
10/24/20 - 0600 40.2 40.2 97 39.4 40.1 NNW | 342 0.9 2.9 0.0 0.00 0.00 44.8 39.4 0.0
10/24/20 - 0500 41.3 41.1 95 40.0 40.9 WNW | 302 1.1 3.7 0.0 0.00 0.00 44.8 40.1 0.0
10/24/20 - 0400 42.2 41.9 93 40.3 41.6 WNW | 290 1.2 3.7 0.0 0.00 0.00 44.8 41.3 0.0
10/24/20 - 0300 43.3 43.2 89 40.3 42.2 N | 357 0.5 3.7 0.0 0.00 0.00 44.8 42.6 0.0
10/24/20 - 0200 44.0 43.9 87 40.5 42.6 NNW | 328 1.3 4.5 0.0 0.00 0.00 44.8 43.1 0.0
10/24/20 - 0100 45.1 44.9 85 40.8 43.4 NW | 306 0.3 2.6 0.0 0.00 0.00 78.3 36.8 0.0
10/24/20 - 0000 47.0 46.7 81 41.3 44.6 NNW | 344 0.4 2.4 0.0 0.00 0.00 78.3 36.8 0.0
10/23/20 - 2300 49.3 49.0 74 41.2 45.6 NW | 317 0.8 3.4 0.0 0.00 0.00 78.3 36.8 0.0
10/23/20 - 2200 51.7 51.4 69 41.8 47.1 NW | 323 1.1 4.7 0.0 0.00 0.00 78.3 36.8 0.0
10/23/20 - 2100 57.1 56.5 56 41.7 49.4 NNW | 334 0.9 4.6 0.0 0.00 0.00 78.3 36.8 0.0
10/23/20 - 2000 64.1 63.9 42 40.8 51.7 NW | 315 3.1 11.6 0.0 0.00 0.00 78.3 36.8 0.0
10/23/20 - 1900 68.8 68.6 36 41.0 53.4 W | 280 6.5 13.7 0.0 0.00 0.00 78.3 36.8 0.0
10/23/20 - 1800 73.7 73.4 30 39.9 54.4 WSW | 256 5.2 12.0 0.0 0.00 0.00 78.3 36.8 0.0
10/23/20 - 1700 76.0 75.4 28 40.4 55.3 SE | 136 5.4 10.1 0.0 0.00 0.00 78.3 36.8 0.0
10/23/20 - 1600 76.9 76.0 23 36.6 54.1 SE | 144 6.3 11.4 0.0 0.00 0.00 78.3 36.8 0.0
10/23/20 - 1500 76.9 76.3 18 30.9 52.3 SSE | 154 6.1 10.6 0.0 0.00 0.00 77.6 36.8 0.0
10/23/20 - 1400 74.7 74.5 19 30.1 51.4 SSE | 158 4.6 9.0 0.0 0.00 0.00 76.3 36.8 0.0
10/23/20 - 1300 71.7 71.6 21 29.8 50.3 SSE | 163 3.6 7.3 0.0 0.00 0.00 73.9 36.8 0.0
10/23/20 - 1200 67.0 67.6 26 31.1 49.1 SSE | 148 2.1 5.9 0.0 0.00 0.00 70.2 36.8 0.0
10/23/20 - 1100 63.1 63.4 37 36.3 49.5 S | 179 1.4 5.2 0.0 0.00 0.00 65.3 36.8 0.0
10/23/20 - 1000 57.0 57.0 41 33.2 45.7 SSW | 202 0.3 1.6 0.0 0.00 0.00 62.6 36.8 0.0
10/23/20 - 0900 43.2 44.2 72 34.4 39.4 WNW | 298 0.4 2.0 0.0 0.00 0.00 50.6 36.8 0.0
10/23/20 - 0800 37.3 37.1 88 34.1 36.0 NW | 315 0.2 2.3 0.0 0.00 0.00 43.5 36.8 0.0
10/23/20 - 0700 38.0 37.9 84 33.5 36.2 NNE | 15 0.5 2.8 0.0 0.00 0.00 43.5 37.4 0.0
10/23/20 - 0600 38.9 38.8 82 33.7 36.8 NW | 316 0.6 3.4 0.0 0.00 0.00 43.5 38.2 0.0
10/23/20 - 0500 39.4 39.4 77 33.0 36.8 N | 355 0.6 2.6 0.0 0.00 0.00 43.5 39.0 0.0
10/23/20 - 0400 40.5 40.4 75 33.0 37.4 NNW | 334 0.6 3.7 0.0 0.00 0.00 43.5 39.9 0.0
10/23/20 - 0300 41.0 40.8 74 33.3 37.8 NW | 308 0.9 3.4 0.0 0.00 0.00 43.5 40.3 0.0
10/23/20 - 0200 42.7 42.4 73 34.6 39.3 NE | 55 0.3 2.7 0.0 0.00 0.00 43.5 41.5 0.0
10/23/20 - 0100 44.2 43.9 65 33.3 39.6 NW | 311 0.4 3.0 0.0 0.00 0.00 81.1 42.8 0.0
10/23/20 - 0000 46.8 46.6 57 32.4 40.6 NW | 306 0.6 3.1 0.0 0.00 0.00 81.1 42.8 0.0
10/22/20 - 2300 48.6 48.5 53 32.0 41.4 NNW | 332 1.3 5.7 0.0 0.00 0.00 81.1 42.8 0.0
10/22/20 - 2200 50.7 50.7 49 32.1 42.5 WNW | 300 2.3 4.8 0.0 0.00 0.00 81.1 42.8 0.0
Max 76.9 76.3 99 43.9 55.3 - 6.8 14.5 1.8 0.00 0.00 81.1 43.1 0.0
Avg 55.5 55.3 58 37.7 46.3 - 2.2 5.8 0.0 0.00 - - - -
Min 37.3 37.1 18 29.8 36.0 - 0.2 1.6 0.0 0.00 0.00 43.5 36.8 0.0
Total - - - - - - - - - 0.00 - - - -

Last 30 Days

Upper Lake

Daily Data | America/Los_Angeles
as of 10/24/20 10:19 PM PDT
Date Daily Max Temp (°F) Time of Max Temp Daily Min Temp (°F) Time of Min Temp Daily Rain (In) Monthly Rain (In) Seasonal Rainfall (In) Wind Spd (mph) Daily Max Wind (mph) Time of Max Wind Max Wind Dir (°) Dew Pt (°F) Max RH (%) Min RH (%) Hrs <= 32F (hrs) Hrs <= 28F (hrs) Chilling <=45F (hrs) Chill Hrs 32-45F (hrs) Utah Chilling (Units) GDDs (DL) GDDs (Mx/Mn) Seas GDDs (DL) Seas GDDs (Smpl) Hrs 70-85F (hrs) Hrs > 95F (hrs) Powdery Mildew Stress (pts) Degree Hrs (hrs) Max Temp2 (°F) Min Temp2 (°F) Bat Volt Min Day (V)
10/23/20 78.3 1506 36.8 0748 0.00 0.00 0.11 2.2 13.2 1859 WNW | 287 36.1 92 17 0.0 0.0 8.0 8.0 3.0 9.5 7.5 3,593 3,616 6.02 0.00 20 65.8 77.7 36.4 12.3
10/22/20 81.1 1646 42.8 0751 0.00 0.00 0.11 1.9 12.0 1330 SE | 146 35.0 100 5 0.0 0.0 3.5 3.5 3.5 10.1 11.9 3,583 3,608 6.68 0.00 0 85.4 80.4 42.6 12.3
10/21/20 89.0 1535 43.0 0650 0.00 0.00 0.11 2.1 14.8 1841 NW | 307 44.8 97 18 0.0 0.0 3.5 3.5 1.0 14.0 16.0 3,573 3,596 3.78 0.00 0 140.8 86.9 42.8 12.3
10/20/20 89.7 1548 42.1 0741 0.00 0.00 0.11 1.8 10.6 1247 SSE | 149 44.0 100 12 0.0 0.0 3.1 3.1 1.0 14.0 15.9 3,559 3,580 2.92 0.00 0 145.5 88.9 41.7 12.3
10/19/20 90.5 1609 43.5 0728 0.00 0.00 0.11 1.6 9.4 1826 WNW | 285 44.0 96 15 0.0 0.0 2.0 2.0 1.0 14.2 17.0 3,545 3,564 2.79 0.00 0 144.9 88.9 43.2 12.3
10/18/20 92.8 1538 43.9 0710 0.00 0.00 0.11 1.6 13.4 1617 NW | 307 41.4 92 11 0.0 0.0 1.5 1.5 1.0 15.2 18.4 3,531 3,547 2.73 0.00 0 163.1 91.2 43.7 12.3
10/17/20 97.7 1550 42.5 0739 0.00 0.00 0.11 2.0 18.1 1754 NW | 310 37.1 92 7 0.0 0.0 2.7 2.7 0.5 17.6 20.1 3,516 3,529 2.11 0.94 0 215.2 94.9 42.0 12.3
10/16/20 93.5 1600 42.9 0722 0.00 0.00 0.11 1.7 8.5 1603 SSE | 166 37.0 93 8 0.0 0.0 2.3 2.3 1.0 15.3 18.2 3,498 3,509 2.23 0.00 10 176.1 91.7 42.5 12.3
10/15/20 94.3 1616 45.7 0714 0.00 0.00 0.11 1.8 10.1 1458 SE | 126 42.1 98 10 0.0 0.0 0.0 0.0 1.0 16.0 20.0 3,483 3,491 2.60 0.00 20 179.3 92.7 45.3 12.3
10/14/20 87.8 1627 46.9 0730 0.00 0.00 0.11 3.6 16.3 1643 NW | 316 46.1 100 13 0.0 0.0 0.0 0.0 0.0 17.0 17.3 3,467 3,471 4.05 0.00 30 166.3 88.0 46.5 12.3
10/13/20 87.9 1525 45.0 0711 0.00 0.00 0.11 4.9 22.1 1516 W | 277 48.1 100 20 0.0 0.0 0.0 0.0 -0.5 16.8 16.5 3,450 3,453 4.36 0.00 40 169.7 88.1 44.9 12.3
10/12/20 84.9 1558 42.9 0737 0.00 0.00 0.11 3.4 18.3 1758 NW | 316 46.5 100 20 0.0 0.0 1.8 1.8 0.5 13.8 13.9 3,433 3,437 9.30 0.00 20 128.7 85.0 42.6 12.4
10/11/20 77.2 1635 43.9 0735 0.00 0.00 0.11 4.6 18.0 1629 NW | 317 46.3 100 22 0.0 0.0 0.8 0.8 1.0 11.2 10.5 3,420 3,423 6.24 0.00 0 65.5 77.4 43.7 12.4
10/10/20 68.7 1525 51.1 0414 0.00 0.00 0.11 3.4 18.1 1637 NW | 325 55.1 100 67 0.0 0.0 0.0 0.0 0.0 9.0 9.9 3,408 3,412 0.00 0.00 10 9.8 69.1 51.0 12.3
10/9/20 78.4 1529 41.0 0714 0.00 0.00 0.11 3.4 21.8 2024 WNW | 294 46.7 100 23 0.0 0.0 6.4 6.4 0.5 10.9 9.7 3,399 3,402 5.55 0.00 20 64.3 77.4 40.7 12.3
10/8/20 80.6 1404 46.1 0152 0.00 0.00 0.11 2.5 13.7 1722 WNW | 301 44.1 95 17 0.0 0.0 0.0 0.0 2.0 10.8 13.3 3,388 3,393 7.69 0.00 0 85.7 79.7 45.8 12.3
10/7/20 88.3 1442 39.3 0713 0.00 0.00 0.11 2.1 15.6 1742 NW | 321 35.8 98 3 0.0 0.0 5.1 5.1 1.5 13.6 13.8 3,378 3,379 2.67 0.00 0 147.2 87.7 38.9 12.3
10/6/20 91.6 1447 41.6 0731 0.00 0.00 0.11 1.6 11.2 1554 SE | 143 40.0 99 8 0.0 0.0 3.8 3.8 1.0 15.0 16.6 3,364 3,366 2.14 0.00 10 167.7 91.1 41.3 12.3
10/5/20 93.0 1609 42.2 0736 0.00 0.00 0.11 1.3 8.6 1328 SSE | 151 40.8 97 7 0.0 0.0 3.0 3.0 1.0 14.5 17.6 3,349 3,349 2.69 0.00 20 160.3 91.5 42.0 12.3
10/4/20 92.8 1543 42.3 0732 0.00 0.00 0.11 2.2 17.6 1847 WNW | 290 36.3 94 6 0.0 0.0 2.1 2.1 1.0 16.9 17.6 3,335 3,332 2.59 0.00 30 199.8 92.6 42.0 12.4
10/3/20 96.3 1526 46.2 0703 0.00 0.00 0.11 4.1 30.4 1611 W | 267 36.9 97 7 0.0 0.0 0.0 0.0 0.0 20.6 21.2 3,318 3,314 2.04 1.50 40 258.5 96.6 45.9 12.3
10/2/20 93.2 1630 50.8 0708 0.00 0.00 0.11 1.7 17.1 1547 NW | 323 48.0 97 12 0.0 0.0 0.0 0.0 0.0 17.0 22.0 3,297 3,293 3.22 0.00 50 160.3 93.5 50.5 12.4
10/1/20 91.5 1552 51.4 0717 0.00 0.00 0.11 0.9 9.1 1546 WNW | 298 51.8 95 15 0.0 0.0 0.0 0.0 0.0 16.9 21.4 3,280 3,271 2.45 0.00 60 149.9 92.4 51.2 12.4
9/30/20 100.3 1507 47.6 0628 0.00 0.00 0.11 2.0 15.6 1852 W | 281 43.5 95 8 0.0 0.0 0.0 0.0 0.0 20.7 24.0 3,263 3,249 2.19 3.36 70 256.6 98.1 47.1 12.3
9/29/20 95.5 1539 47.3 0716 0.00 0.00 0.11 1.2 8.0 1414 S | 190 45.0 94 9 0.0 0.0 0.0 0.0 0.0 16.8 21.4 3,242 3,225 2.37 0.14 80 184.6 94.4 47.1 12.4
9/28/20 96.0 1529 50.6 0730 0.00 0.00 0.11 1.6 9.8 1557 SSE | 150 43.0 85 8 0.0 0.0 0.0 0.0 0.0 18.8 23.3 3,226 3,204 3.16 0.34 90 193.8 93.8 50.4 12.4
9/27/20 95.5 1523 48.0 0711 0.00 0.00 0.11 3.0 17.3 1534 NE | 56 42.3 100 7 0.0 0.0 0.0 0.0 -15.5 22.2 21.8 3,207 3,181 4.58 0.18 100 268.2 95.6 47.8 12.4
9/26/20 82.1 1416 51.1 0701 0.00 0.00 0.11 7.9 26.7 1426 WNW | 292 52.3 100 32 0.0 0.0 0.0 0.0 0.0 17.8 16.6 3,185 3,159 10.42 0.00 100 131.6 82.6 50.8 12.4
9/25/20 82.4 1433 48.2 0535 0.00 0.00 0.11 5.8 25.8 1620 NNW | 330 46.6 100 19 0.0 0.0 0.0 0.0 -14.5 14.9 15.3 3,167 3,142 9.00 0.00 80 112.2 83.1 48.0 12.3
9/24/20 78.0 1514 52.2 0057 0.00 0.00 0.11 5.9 22.5 1800 NW | 305 52.9 100 39 0.0 0.0 0.0 0.0 0.5 14.8 15.1 3,152 3,127 8.17 0.00 60 86.6 78.4 52.1 12.4
Max 100.3 - 52.2 - 0.00 0.00 - 7.9 30.4 - - 55.1 100 67 0.0 0.0 8.0 8.0 3.5 22.2 24.0 - - 10.42 3.36 100 268.2 98.1 52.1 12.4
Avg - - - - - 0.00 - 2.8 - - - 43.7 - - 0.0 0.0 1.7 1.7 -0.3 15.2 16.8 - - 4.22 0.22 - - - - -
Min 68.7 - 36.8 - 0.00 0.00 - 0.9 8.0 - - 35.0 85 3 0.0 0.0 0.0 0.0 -15.5 9.0 7.5 - - 0.00 0.00 0 9.8 69.1 36.4 12.3
Total - - - - - - - - - - - - - - 0.0 0.0 49.6 49.6 -8.5 455.8 503.7 - - 126.74 6.46 - - - - -

Chilling & Growing Degree Days

Upper Lake

Daily Data | America/Los_Angeles
as of 10/24/20 10:19 PM PDT
Date Chilling <=45F (hrs) Chill Hrs 32-45F (hrs) Utah Chilling (Units) GDDs (DL) GDDs (Mx/Mn) Seas GDDs (DL) Seas GDDs (Smpl)
10/23/20 8.0 8.0 3.0 9.5 7.5 3,593 3,616
10/22/20 3.5 3.5 3.5 10.1 11.9 3,583 3,608
10/21/20 3.5 3.5 1.0 14.0 16.0 3,573 3,596
10/20/20 3.1 3.1 1.0 14.0 15.9 3,559 3,580
10/19/20 2.0 2.0 1.0 14.2 17.0 3,545 3,564
10/18/20 1.5 1.5 1.0 15.2 18.4 3,531 3,547
10/17/20 2.7 2.7 0.5 17.6 20.1 3,516 3,529
Max 8.0 8.0 3.5 17.6 20.1 - -
Avg 3.5 3.5 1.6 13.5 15.3 - -
Min 1.5 1.5 0.5 9.5 7.5 - -
Total 24.3 24.3 11.0 94.6 106.8 - -
Calm: 0.1%

Upper Lake Climate Summary

Current Year

Current Year | Showing 1/1/20 - 10/23/20
as of 10/24/20 10:19 PM PDT
Temperature (°F) Precip (in) Days
Month Days Avg Max Avg Min Max Max Min Min Total Daily Min Temp < 28 Daily Min Temp < 32 Daily Max Temp > 90 Daily Max Temp > 100 Daily Rain > 0.01 Daily Rain > 0.1
Jan 2020 31 55.3 34.7 71.4 26.1 3.74 3 13 0 0 17 11
Feb 2020 29 67.3 31.5 77.7 24.4 0 2 18 0 0 0 0
Mar 2020 31 60.7 34.8 81 28.2 1.51 0 8 0 0 9 6
Apr 2020 30 70.7 42.8 86.2 27.9 1.49 1 2 0 0 5 4
May 2020 31 76.5 45.7 97.5 34.4 1.54 0 0 7 0 7 5
Jun 2020 30 85.9 51.7 104.1 37.6 0.01 0 0 12 3 0 0
Jul 2020 31 94.1 53.5 99.6 46.4 0 0 0 26 0 0 0
Aug 2020 31 94.8 56.1 105.6 48 0.11 0 0 27 3 2 0
Sep 2020 30 89.6 49.5 108.3 41.1 0 0 0 14 4 0 0
Oct 2020 23 87.8 44.1 97.7 36.8 0 0 0 11 0 0 0
Total 297 - - - - 8.4 6 41 97 10 40 26
Average 29.7 78.3 44.4 - - 0.84 0.6 4.1 9.7 1 4 2.6
Maximum 31 94.8 56.1 108.3 - 3.74 3 18 27 4 17 11
Minimum 23 55.3 31.5 - 24.4 0 0 0 0 0 0 0

Upper Lake Climate Summary

Last Year

Last Year | Showing 1/1/19 - 12/31/19
as of 10/24/20 10:19 PM PDT
Temperature (°F) Precip (in) Days
Month Days Avg Max Avg Min Max Max Min Min Total Daily Min Temp < 28 Daily Min Temp < 32 Daily Max Temp > 90 Daily Max Temp > 100 Daily Rain > 0.01 Daily Rain > 0.1
Jan 2019 31 57.8 36.4 71.8 24.8 9.44 3 9 0 0 11 11
Feb 2019 28 49.6 34 57.1 23 15.92 8 12 0 0 19 16
Mar 2019 31 59.4 37.1 74 27.9 6.68 1 4 0 0 15 11
Apr 2019 30 71.5 44.9 89.7 37.6 0.94 0 0 0 0 8 2
May 2019 31 73.7 44.5 86.5 35.8 3.63 0 0 0 0 9 5
Jun 2019 30 87.2 50.8 97 39.1 0.01 0 0 12 0 0 0
Jul 2019 31 89.9 53.2 97.5 47.9 0.03 0 0 17 0 1 0
Aug 2019 31 91.7 53.8 98.8 48 0.01 0 0 21 0 0 0
Sep 2019 30 83.1 46.8 97.4 33.5 0.24 0 0 11 0 3 1
Oct 2019 31 77 34.1 88.6 22.1 0.03 4 10 0 0 1 0
Nov 2019 30 69.8 32.5 82.9 23.7 1.66 6 15 0 0 3 3
Dec 2019 31 53.7 37.7 61.9 24 6.33 4 10 0 0 17 10
Total 365 - - - - 44.92 26 60 61 0 87 59
Average 30.4 72 42.2 - - 3.74 2.2 5 5.1 0 7.2 4.9
Maximum 31 91.7 53.8 98.8 - 15.92 8 15 21 0 19 16
Minimum 28 49.6 32.5 - 22.1 0.01 0 0 0 0 0 0